sensor_id;sensor_type;location;lat;lon;timestamp;P1;durP1;ratioP1;P2;durP2;ratioP2
81191;SDS011;70665;47.652;-2.730;2024-01-30T00:01:21;7.70;;;1.30;;
81191;SDS011;70665;47.652;-2.730;2024-01-30T00:03:47;5.03;;;1.40;;
81191;SDS011;70665;47.652;-2.730;2024-01-30T00:06:13;4.13;;;1.00;;
81191;SDS011;70665;47.652;-2.730;2024-01-30T00:08:38;3.78;;;1.05;;
81191;SDS011;70665;47.652;-2.730;2024-01-30T00:11:04;4.82;;;1.05;;
81191;SDS011;70665;47.652;-2.730;2024-01-30T00:13:30;2.88;;;1.13;;
81191;SDS011;70665;47.652;-2.730;2024-01-30T00:15:56;3.30;;;1.30;;
81191;SDS011;70665;47.652;-2.730;2024-01-30T00:18:21;5.75;;;1.50;;
81191;SDS011;70665;47.652;-2.730;2024-01-30T00:20:47;5.43;;;1.25;;
81191;SDS011;70665;47.652;-2.730;2024-01-30T00:23:12;6.25;;;1.20;;
81191;SDS011;70665;47.652;-2.730;2024-01-30T00:25:38;5.40;;;1.80;;
81191;SDS011;70665;47.652;-2.730;2024-01-30T00:28:04;4.68;;;1.05;;
81191;SDS011;70665;47.652;-2.730;2024-01-30T00:32:55;14.73;;;1.40;;
81191;SDS011;70665;47.652;-2.730;2024-01-30T00:35:20;4.43;;;1.20;;
81191;SDS011;70665;47.652;-2.730;2024-01-30T00:37:47;6.38;;;1.33;;
81191;SDS011;70665;47.652;-2.730;2024-01-30T00:42:43;6.28;;;1.27;;
81191;SDS011;70665;47.652;-2.730;2024-01-30T00:45:13;4.78;;;1.20;;
81191;SDS011;70665;47.652;-2.730;2024-01-30T00:47:40;4.90;;;1.10;;
81191;SDS011;70665;47.652;-2.730;2024-01-30T00:50:06;3.67;;;1.50;;
81191;SDS011;70665;47.652;-2.730;2024-01-30T00:52:32;6.63;;;1.58;;
81191;SDS011;70665;47.652;-2.730;2024-01-30T00:54:58;6.90;;;1.25;;
81191;SDS011;70665;47.652;-2.730;2024-01-30T00:57:24;6.97;;;1.40;;
81191;SDS011;70665;47.652;-2.730;2024-01-30T00:59:50;4.03;;;1.25;;
81191;SDS011;70665;47.652;-2.730;2024-01-30T01:02:15;4.43;;;1.42;;
81191;SDS011;70665;47.652;-2.730;2024-01-30T01:04:42;5.00;;;1.65;;
81191;SDS011;70665;47.652;-2.730;2024-01-30T01:07:09;5.38;;;1.33;;
81191;SDS011;70665;47.652;-2.730;2024-01-30T01:09:35;3.90;;;1.20;;
81191;SDS011;70665;47.652;-2.730;2024-01-30T01:12:01;6.72;;;1.92;;
81191;SDS011;70665;47.652;-2.730;2024-01-30T01:14:27;6.03;;;1.83;;
81191;SDS011;70665;47.652;-2.730;2024-01-30T01:16:53;8.18;;;1.38;;
81191;SDS011;70665;47.652;-2.730;2024-01-30T01:19:18;1.75;;;0.98;;
81191;SDS011;70665;47.652;-2.730;2024-01-30T01:21:44;2.95;;;1.10;;
81191;SDS011;70665;47.652;-2.730;2024-01-30T01:24:10;2.65;;;0.60;;
81191;SDS011;70665;47.652;-2.730;2024-01-30T01:26:35;6.32;;;1.17;;
81191;SDS011;70665;47.652;-2.730;2024-01-30T01:29:01;1.63;;;1.00;;
81191;SDS011;70665;47.652;-2.730;2024-01-30T01:31:29;2.53;;;0.98;;
81191;SDS011;70665;47.652;-2.730;2024-01-30T01:33:55;4.80;;;1.00;;
81191;SDS011;70665;47.652;-2.730;2024-01-30T01:36:20;2.45;;;0.93;;
81191;SDS011;70665;47.652;-2.730;2024-01-30T01:38:46;3.90;;;1.20;;
81191;SDS011;70665;47.652;-2.730;2024-01-30T01:41:12;1.42;;;1.15;;
81191;SDS011;70665;47.652;-2.730;2024-01-30T01:43:37;4.10;;;1.40;;
81191;SDS011;70665;47.652;-2.730;2024-01-30T01:46:04;3.75;;;1.00;;
81191;SDS011;70665;47.652;-2.730;2024-01-30T01:48:31;2.20;;;1.00;;
81191;SDS011;70665;47.652;-2.730;2024-01-30T01:50:58;3.45;;;0.93;;
81191;SDS011;70665;47.652;-2.730;2024-01-30T01:53:24;4.55;;;2.20;;
81191;SDS011;70665;47.652;-2.730;2024-01-30T01:55:50;3.20;;;1.48;;
81191;SDS011;70665;47.652;-2.730;2024-01-30T01:58:17;3.88;;;0.95;;
81191;SDS011;70665;47.652;-2.730;2024-01-30T02:00:45;2.67;;;1.30;;
81191;SDS011;70665;47.652;-2.730;2024-01-30T02:03:11;2.03;;;0.70;;
81191;SDS011;70665;47.652;-2.730;2024-01-30T02:05:43;7.03;;;1.77;;
81191;SDS011;70665;47.652;-2.730;2024-01-30T02:08:09;4.40;;;0.93;;
81191;SDS011;70665;47.652;-2.730;2024-01-30T02:10:34;3.88;;;1.05;;
81191;SDS011;70665;47.652;-2.730;2024-01-30T02:13:00;5.10;;;1.10;;
81191;SDS011;70665;47.652;-2.730;2024-01-30T02:15:25;3.60;;;1.60;;
81191;SDS011;70665;47.652;-2.730;2024-01-30T02:17:51;4.78;;;1.20;;
81191;SDS011;70665;47.652;-2.730;2024-01-30T02:20:17;2.70;;;1.23;;
81191;SDS011;70665;47.652;-2.730;2024-01-30T02:22:42;2.63;;;1.02;;
81191;SDS011;70665;47.652;-2.730;2024-01-30T02:25:08;1.77;;;1.00;;
81191;SDS011;70665;47.652;-2.730;2024-01-30T02:27:34;3.20;;;0.77;;
81191;SDS011;70665;47.652;-2.730;2024-01-30T02:30:00;1.52;;;1.10;;
81191;SDS011;70665;47.652;-2.730;2024-01-30T02:32:25;1.75;;;1.05;;
81191;SDS011;70665;47.652;-2.730;2024-01-30T02:34:51;3.00;;;1.25;;
81191;SDS011;70665;47.652;-2.730;2024-01-30T02:37:17;1.63;;;1.10;;
81191;SDS011;70665;47.652;-2.730;2024-01-30T02:39:42;2.28;;;0.80;;
81191;SDS011;70665;47.652;-2.730;2024-01-30T02:42:08;3.95;;;1.30;;
81191;SDS011;70665;47.652;-2.730;2024-01-30T02:44:33;1.48;;;0.90;;
81191;SDS011;70665;47.652;-2.730;2024-01-30T02:46:59;1.23;;;0.57;;
81191;SDS011;70665;47.652;-2.730;2024-01-30T02:49:24;3.13;;;1.00;;
81191;SDS011;70665;47.652;-2.730;2024-01-30T02:51:51;2.25;;;0.80;;
81191;SDS011;70665;47.652;-2.730;2024-01-30T02:54:18;1.25;;;1.05;;
81191;SDS011;70665;47.652;-2.730;2024-01-30T02:56:44;1.67;;;1.00;;
81191;SDS011;70665;47.652;-2.730;2024-01-30T02:59:10;3.42;;;1.10;;
81191;SDS011;70665;47.652;-2.730;2024-01-30T03:01:44;1.33;;;0.80;;
81191;SDS011;70665;47.652;-2.730;2024-01-30T03:04:11;2.55;;;1.35;;
81191;SDS011;70665;47.652;-2.730;2024-01-30T03:06:37;2.47;;;0.90;;
81191;SDS011;70665;47.652;-2.730;2024-01-30T03:09:03;1.17;;;0.90;;
81191;SDS011;70665;47.652;-2.730;2024-01-30T03:11:29;2.35;;;1.13;;
81191;SDS011;70665;47.652;-2.730;2024-01-30T03:13:55;5.50;;;0.80;;
81191;SDS011;70665;47.652;-2.730;2024-01-30T03:16:21;5.72;;;0.98;;
81191;SDS011;70665;47.652;-2.730;2024-01-30T03:18:47;0.60;;;0.60;;
81191;SDS011;70665;47.652;-2.730;2024-01-30T03:21:13;2.20;;;0.70;;
81191;SDS011;70665;47.652;-2.730;2024-01-30T03:23:39;2.45;;;1.25;;
81191;SDS011;70665;47.652;-2.730;2024-01-30T03:26:05;2.45;;;0.73;;
81191;SDS011;70665;47.652;-2.730;2024-01-30T03:28:31;1.88;;;0.73;;
81191;SDS011;70665;47.652;-2.730;2024-01-30T03:30:57;1.40;;;0.95;;
81191;SDS011;70665;47.652;-2.730;2024-01-30T03:33:22;1.55;;;1.00;;
81191;SDS011;70665;47.652;-2.730;2024-01-30T03:35:48;2.03;;;1.00;;
81191;SDS011;70665;47.652;-2.730;2024-01-30T03:38:14;1.48;;;1.27;;
81191;SDS011;70665;47.652;-2.730;2024-01-30T03:40:39;2.17;;;0.95;;
81191;SDS011;70665;47.652;-2.730;2024-01-30T03:43:05;1.73;;;1.02;;
81191;SDS011;70665;47.652;-2.730;2024-01-30T03:45:31;0.93;;;0.90;;
81191;SDS011;70665;47.652;-2.730;2024-01-30T03:47:56;3.67;;;1.38;;
81191;SDS011;70665;47.652;-2.730;2024-01-30T03:50:22;2.13;;;0.98;;
81191;SDS011;70665;47.652;-2.730;2024-01-30T03:52:47;1.42;;;1.17;;
81191;SDS011;70665;47.652;-2.730;2024-01-30T03:55:13;2.65;;;1.25;;
81191;SDS011;70665;47.652;-2.730;2024-01-30T03:57:39;2.28;;;0.90;;
81191;SDS011;70665;47.652;-2.730;2024-01-30T04:00:04;3.17;;;1.10;;
81191;SDS011;70665;47.652;-2.730;2024-01-30T04:02:30;2.83;;;1.20;;
81191;SDS011;70665;47.652;-2.730;2024-01-30T04:04:56;2.00;;;1.30;;
81191;SDS011;70665;47.652;-2.730;2024-01-30T04:07:22;1.83;;;1.15;;
81191;SDS011;70665;47.652;-2.730;2024-01-30T04:09:47;0.88;;;0.82;;
81191;SDS011;70665;47.652;-2.730;2024-01-30T04:12:13;3.58;;;1.25;;
81191;SDS011;70665;47.652;-2.730;2024-01-30T04:14:39;2.42;;;1.20;;
81191;SDS011;70665;47.652;-2.730;2024-01-30T04:17:04;1.38;;;1.10;;
81191;SDS011;70665;47.652;-2.730;2024-01-30T04:19:30;1.38;;;1.02;;
81191;SDS011;70665;47.652;-2.730;2024-01-30T04:21:56;3.15;;;1.58;;
81191;SDS011;70665;47.652;-2.730;2024-01-30T04:24:21;3.50;;;1.45;;
81191;SDS011;70665;47.652;-2.730;2024-01-30T04:26:47;3.72;;;1.30;;
81191;SDS011;70665;47.652;-2.730;2024-01-30T04:29:12;3.95;;;1.35;;
81191;SDS011;70665;47.652;-2.730;2024-01-30T04:31:38;2.05;;;1.08;;
81191;SDS011;70665;47.652;-2.730;2024-01-30T04:34:04;3.17;;;1.20;;
81191;SDS011;70665;47.652;-2.730;2024-01-30T04:36:29;1.55;;;1.25;;
81191;SDS011;70665;47.652;-2.730;2024-01-30T04:38:55;2.05;;;1.38;;
81191;SDS011;70665;47.652;-2.730;2024-01-30T04:41:20;2.75;;;1.40;;
81191;SDS011;70665;47.652;-2.730;2024-01-30T04:43:46;5.38;;;1.45;;
81191;SDS011;70665;47.652;-2.730;2024-01-30T04:46:12;6.82;;;3.28;;
81191;SDS011;70665;47.652;-2.730;2024-01-30T04:48:37;2.80;;;1.70;;
81191;SDS011;70665;47.652;-2.730;2024-01-30T04:51:03;2.65;;;1.55;;
81191;SDS011;70665;47.652;-2.730;2024-01-30T04:53:30;1.73;;;1.40;;
81191;SDS011;70665;47.652;-2.730;2024-01-30T04:55:56;2.55;;;1.58;;
81191;SDS011;70665;47.652;-2.730;2024-01-30T04:58:21;5.45;;;1.55;;
81191;SDS011;70665;47.652;-2.730;2024-01-30T05:00:47;1.90;;;1.15;;
81191;SDS011;70665;47.652;-2.730;2024-01-30T05:03:16;3.55;;;0.95;;
81191;SDS011;70665;47.652;-2.730;2024-01-30T05:05:42;3.55;;;1.48;;
81191;SDS011;70665;47.652;-2.730;2024-01-30T05:08:08;3.15;;;1.35;;
81191;SDS011;70665;47.652;-2.730;2024-01-30T05:10:34;2.03;;;1.90;;
81191;SDS011;70665;47.652;-2.730;2024-01-30T05:12:59;1.98;;;1.33;;
81191;SDS011;70665;47.652;-2.730;2024-01-30T05:15:25;2.67;;;1.20;;
81191;SDS011;70665;47.652;-2.730;2024-01-30T05:17:51;1.40;;;1.30;;
81191;SDS011;70665;47.652;-2.730;2024-01-30T05:20:16;2.63;;;1.30;;
81191;SDS011;70665;47.652;-2.730;2024-01-30T05:25:10;4.47;;;1.50;;
81191;SDS011;70665;47.652;-2.730;2024-01-30T05:27:37;1.38;;;1.15;;
81191;SDS011;70665;47.652;-2.730;2024-01-30T05:30:02;3.55;;;1.77;;
81191;SDS011;70665;47.652;-2.730;2024-01-30T05:32:28;4.55;;;2.08;;
81191;SDS011;70665;47.652;-2.730;2024-01-30T05:34:54;5.05;;;1.83;;
81191;SDS011;70665;47.652;-2.730;2024-01-30T05:37:20;3.78;;;1.55;;
81191;SDS011;70665;47.652;-2.730;2024-01-30T05:39:46;2.70;;;1.98;;
81191;SDS011;70665;47.652;-2.730;2024-01-30T05:42:11;2.97;;;1.77;;
81191;SDS011;70665;47.652;-2.730;2024-01-30T05:44:37;2.20;;;1.58;;
81191;SDS011;70665;47.652;-2.730;2024-01-30T05:47:02;3.20;;;1.88;;
81191;SDS011;70665;47.652;-2.730;2024-01-30T05:49:28;2.22;;;1.95;;
81191;SDS011;70665;47.652;-2.730;2024-01-30T05:51:54;2.83;;;1.85;;
81191;SDS011;70665;47.652;-2.730;2024-01-30T05:54:19;3.63;;;2.13;;
81191;SDS011;70665;47.652;-2.730;2024-01-30T05:56:45;2.65;;;1.90;;
81191;SDS011;70665;47.652;-2.730;2024-01-30T05:59:11;5.40;;;1.77;;
81191;SDS011;70665;47.652;-2.730;2024-01-30T06:01:36;4.38;;;2.40;;
81191;SDS011;70665;47.652;-2.730;2024-01-30T06:04:02;3.00;;;2.58;;
81191;SDS011;70665;47.652;-2.730;2024-01-30T06:06:27;4.05;;;1.70;;
81191;SDS011;70665;47.652;-2.730;2024-01-30T06:11:21;1.90;;;1.60;;
81191;SDS011;70665;47.652;-2.730;2024-01-30T06:13:46;3.90;;;2.63;;
81191;SDS011;70665;47.652;-2.730;2024-01-30T06:16:12;4.10;;;2.75;;
81191;SDS011;70665;47.652;-2.730;2024-01-30T06:18:38;3.65;;;2.47;;
81191;SDS011;70665;47.652;-2.730;2024-01-30T06:21:04;3.83;;;2.50;;
81191;SDS011;70665;47.652;-2.730;2024-01-30T06:23:30;3.13;;;2.25;;
81191;SDS011;70665;47.652;-2.730;2024-01-30T06:25:55;4.72;;;2.92;;
81191;SDS011;70665;47.652;-2.730;2024-01-30T06:28:21;4.75;;;2.35;;
81191;SDS011;70665;47.652;-2.730;2024-01-30T06:30:47;3.65;;;2.05;;
81191;SDS011;70665;47.652;-2.730;2024-01-30T06:33:12;5.68;;;2.75;;
81191;SDS011;70665;47.652;-2.730;2024-01-30T06:35:40;5.70;;;3.47;;
81191;SDS011;70665;47.652;-2.730;2024-01-30T06:38:06;5.70;;;3.22;;
81191;SDS011;70665;47.652;-2.730;2024-01-30T06:40:31;6.72;;;3.88;;
81191;SDS011;70665;47.652;-2.730;2024-01-30T06:42:57;7.55;;;3.85;;
81191;SDS011;70665;47.652;-2.730;2024-01-30T06:45:23;5.53;;;3.83;;
81191;SDS011;70665;47.652;-2.730;2024-01-30T06:47:48;5.60;;;3.03;;
81191;SDS011;70665;47.652;-2.730;2024-01-30T06:50:14;6.55;;;3.05;;
81191;SDS011;70665;47.652;-2.730;2024-01-30T06:52:40;5.80;;;2.90;;
81191;SDS011;70665;47.652;-2.730;2024-01-30T06:55:05;6.20;;;3.08;;
81191;SDS011;70665;47.652;-2.730;2024-01-30T06:57:31;6.03;;;3.17;;
81191;SDS011;70665;47.652;-2.730;2024-01-30T06:59:57;5.65;;;2.90;;
81191;SDS011;70665;47.652;-2.730;2024-01-30T07:02:22;8.98;;;3.60;;
81191;SDS011;70665;47.652;-2.730;2024-01-30T07:04:48;5.07;;;3.20;;
81191;SDS011;70665;47.652;-2.730;2024-01-30T07:07:14;6.03;;;2.88;;
81191;SDS011;70665;47.652;-2.730;2024-01-30T07:09:40;4.50;;;2.97;;
81191;SDS011;70665;47.652;-2.730;2024-01-30T07:12:06;4.72;;;2.65;;
81191;SDS011;70665;47.652;-2.730;2024-01-30T07:14:32;7.55;;;3.28;;
81191;SDS011;70665;47.652;-2.730;2024-01-30T07:16:58;6.45;;;3.72;;
81191;SDS011;70665;47.652;-2.730;2024-01-30T07:19:23;8.73;;;3.58;;
81191;SDS011;70665;47.652;-2.730;2024-01-30T07:21:49;5.15;;;2.85;;
81191;SDS011;70665;47.652;-2.730;2024-01-30T07:24:15;9.05;;;2.97;;
81191;SDS011;70665;47.652;-2.730;2024-01-30T07:26:40;5.75;;;3.30;;
81191;SDS011;70665;47.652;-2.730;2024-01-30T07:29:06;6.03;;;3.90;;
81191;SDS011;70665;47.652;-2.730;2024-01-30T07:31:32;8.55;;;3.55;;
81191;SDS011;70665;47.652;-2.730;2024-01-30T07:33:57;7.63;;;3.95;;
81191;SDS011;70665;47.652;-2.730;2024-01-30T07:36:23;7.50;;;3.47;;
81191;SDS011;70665;47.652;-2.730;2024-01-30T07:38:49;5.18;;;3.35;;
81191;SDS011;70665;47.652;-2.730;2024-01-30T07:41:14;4.53;;;3.13;;
81191;SDS011;70665;47.652;-2.730;2024-01-30T07:43:40;4.65;;;3.17;;
81191;SDS011;70665;47.652;-2.730;2024-01-30T07:46:05;6.60;;;3.10;;
81191;SDS011;70665;47.652;-2.730;2024-01-30T07:48:35;6.63;;;3.08;;
81191;SDS011;70665;47.652;-2.730;2024-01-30T07:51:00;7.32;;;3.25;;
81191;SDS011;70665;47.652;-2.730;2024-01-30T07:53:27;6.05;;;2.95;;
81191;SDS011;70665;47.652;-2.730;2024-01-30T07:55:53;8.38;;;3.53;;
81191;SDS011;70665;47.652;-2.730;2024-01-30T07:58:19;7.72;;;3.40;;
81191;SDS011;70665;47.652;-2.730;2024-01-30T08:00:45;5.82;;;3.67;;
81191;SDS011;70665;47.652;-2.730;2024-01-30T08:03:10;6.88;;;3.85;;
81191;SDS011;70665;47.652;-2.730;2024-01-30T08:05:36;6.63;;;3.67;;
81191;SDS011;70665;47.652;-2.730;2024-01-30T08:08:04;5.70;;;3.67;;
81191;SDS011;70665;47.652;-2.730;2024-01-30T08:10:30;7.43;;;3.85;;
81191;SDS011;70665;47.652;-2.730;2024-01-30T08:12:55;10.13;;;4.00;;
81191;SDS011;70665;47.652;-2.730;2024-01-30T08:15:21;13.45;;;5.07;;
81191;SDS011;70665;47.652;-2.730;2024-01-30T08:17:47;7.32;;;4.00;;
81191;SDS011;70665;47.652;-2.730;2024-01-30T08:20:12;10.20;;;4.35;;
81191;SDS011;70665;47.652;-2.730;2024-01-30T08:22:38;11.02;;;4.45;;
81191;SDS011;70665;47.652;-2.730;2024-01-30T08:25:05;11.35;;;4.00;;
81191;SDS011;70665;47.652;-2.730;2024-01-30T08:27:31;11.25;;;3.97;;
81191;SDS011;70665;47.652;-2.730;2024-01-30T08:29:57;9.27;;;4.50;;
81191;SDS011;70665;47.652;-2.730;2024-01-30T08:32:22;16.42;;;4.60;;
81191;SDS011;70665;47.652;-2.730;2024-01-30T08:34:49;11.60;;;4.32;;
81191;SDS011;70665;47.652;-2.730;2024-01-30T08:37:15;11.70;;;4.65;;
81191;SDS011;70665;47.652;-2.730;2024-01-30T08:42:07;28.73;;;5.25;;
81191;SDS011;70665;47.652;-2.730;2024-01-30T08:44:33;10.35;;;4.88;;
81191;SDS011;70665;47.652;-2.730;2024-01-30T08:46:58;8.52;;;4.78;;
81191;SDS011;70665;47.652;-2.730;2024-01-30T08:49:24;22.42;;;4.63;;
81191;SDS011;70665;47.652;-2.730;2024-01-30T08:51:50;6.57;;;3.97;;
81191;SDS011;70665;47.652;-2.730;2024-01-30T08:54:15;8.93;;;4.50;;
81191;SDS011;70665;47.652;-2.730;2024-01-30T08:56:41;8.77;;;4.07;;
81191;SDS011;70665;47.652;-2.730;2024-01-30T08:59:07;11.27;;;4.65;;
81191;SDS011;70665;47.652;-2.730;2024-01-30T09:01:32;11.15;;;5.15;;
81191;SDS011;70665;47.652;-2.730;2024-01-30T09:03:58;13.60;;;4.80;;
81191;SDS011;70665;47.652;-2.730;2024-01-30T09:06:23;11.70;;;5.35;;
81191;SDS011;70665;47.652;-2.730;2024-01-30T09:08:51;9.18;;;5.07;;
81191;SDS011;70665;47.652;-2.730;2024-01-30T09:11:17;10.77;;;5.10;;
81191;SDS011;70665;47.652;-2.730;2024-01-30T09:13:43;10.52;;;5.05;;
81191;SDS011;70665;47.652;-2.730;2024-01-30T09:16:09;12.15;;;5.57;;
81191;SDS011;70665;47.652;-2.730;2024-01-30T09:18:34;14.23;;;5.93;;
81191;SDS011;70665;47.652;-2.730;2024-01-30T09:21:00;14.25;;;6.65;;
81191;SDS011;70665;47.652;-2.730;2024-01-30T09:23:27;10.95;;;4.85;;
81191;SDS011;70665;47.652;-2.730;2024-01-30T09:25:53;14.05;;;6.28;;
81191;SDS011;70665;47.652;-2.730;2024-01-30T09:28:18;10.75;;;4.63;;
81191;SDS011;70665;47.652;-2.730;2024-01-30T09:30:44;5.85;;;3.05;;
81191;SDS011;70665;47.652;-2.730;2024-01-30T09:33:10;6.15;;;3.35;;
81191;SDS011;70665;47.652;-2.730;2024-01-30T09:35:35;5.00;;;2.70;;
81191;SDS011;70665;47.652;-2.730;2024-01-30T09:38:01;4.95;;;3.17;;
81191;SDS011;70665;47.652;-2.730;2024-01-30T09:40:27;8.40;;;3.30;;
81191;SDS011;70665;47.652;-2.730;2024-01-30T09:42:53;9.20;;;3.95;;
81191;SDS011;70665;47.652;-2.730;2024-01-30T09:45:21;7.80;;;3.10;;
81191;SDS011;70665;47.652;-2.730;2024-01-30T09:47:49;6.47;;;3.50;;
81191;SDS011;70665;47.652;-2.730;2024-01-30T09:50:15;6.40;;;2.90;;
81191;SDS011;70665;47.652;-2.730;2024-01-30T09:55:11;6.68;;;3.05;;
81191;SDS011;70665;47.652;-2.730;2024-01-30T09:57:36;4.15;;;2.83;;
81191;SDS011;70665;47.652;-2.730;2024-01-30T10:00:03;7.05;;;3.30;;
81191;SDS011;70665;47.652;-2.730;2024-01-30T10:02:31;9.40;;;3.28;;
81191;SDS011;70665;47.652;-2.730;2024-01-30T10:04:57;6.95;;;3.10;;
81191;SDS011;70665;47.652;-2.730;2024-01-30T10:07:22;11.88;;;4.25;;
81191;SDS011;70665;47.652;-2.730;2024-01-30T10:09:48;10.00;;;3.42;;
81191;SDS011;70665;47.652;-2.730;2024-01-30T10:12:14;6.32;;;3.47;;
81191;SDS011;70665;47.652;-2.730;2024-01-30T10:14:41;9.60;;;3.30;;
81191;SDS011;70665;47.652;-2.730;2024-01-30T10:17:08;7.00;;;3.08;;
81191;SDS011;70665;47.652;-2.730;2024-01-30T10:19:34;11.15;;;3.20;;
81191;SDS011;70665;47.652;-2.730;2024-01-30T10:24:26;6.00;;;1.90;;
81191;SDS011;70665;47.652;-2.730;2024-01-30T10:26:54;5.82;;;1.63;;
81191;SDS011;70665;47.652;-2.730;2024-01-30T10:29:20;4.22;;;1.35;;
81191;SDS011;70665;47.652;-2.730;2024-01-30T10:34:22;6.38;;;1.55;;
81191;SDS011;70665;47.652;-2.730;2024-01-30T10:36:48;5.85;;;1.95;;
81191;SDS011;70665;47.652;-2.730;2024-01-30T10:39:15;3.75;;;1.63;;
81191;SDS011;70665;47.652;-2.730;2024-01-30T10:41:43;3.28;;;2.10;;
81191;SDS011;70665;47.652;-2.730;2024-01-30T10:44:09;4.65;;;1.17;;
81191;SDS011;70665;47.652;-2.730;2024-01-30T10:46:37;3.25;;;1.30;;
81191;SDS011;70665;47.652;-2.730;2024-01-30T10:49:04;2.25;;;1.25;;
81191;SDS011;70665;47.652;-2.730;2024-01-30T10:51:31;4.53;;;1.20;;
81191;SDS011;70665;47.652;-2.730;2024-01-30T10:53:57;3.50;;;1.10;;
81191;SDS011;70665;47.652;-2.730;2024-01-30T10:56:23;2.22;;;1.08;;
81191;SDS011;70665;47.652;-2.730;2024-01-30T10:58:50;2.47;;;1.20;;
81191;SDS011;70665;47.652;-2.730;2024-01-30T11:01:20;2.47;;;1.10;;
81191;SDS011;70665;47.652;-2.730;2024-01-30T11:03:54;3.53;;;0.90;;
81191;SDS011;70665;47.652;-2.730;2024-01-30T11:06:24;1.15;;;0.85;;
81191;SDS011;70665;47.652;-2.730;2024-01-30T11:09:00;1.38;;;1.05;;
81191;SDS011;70665;47.652;-2.730;2024-01-30T11:11:28;2.28;;;1.10;;
81191;SDS011;70665;47.652;-2.730;2024-01-30T11:13:54;2.75;;;1.10;;
81191;SDS011;70665;47.652;-2.730;2024-01-30T11:16:20;2.42;;;1.02;;
81191;SDS011;70665;47.652;-2.730;2024-01-30T11:18:49;3.80;;;0.90;;
81191;SDS011;70665;47.652;-2.730;2024-01-30T11:21:16;1.65;;;0.95;;
81191;SDS011;70665;47.652;-2.730;2024-01-30T11:23:42;2.05;;;0.90;;
81191;SDS011;70665;47.652;-2.730;2024-01-30T11:26:10;1.48;;;0.95;;
81191;SDS011;70665;47.652;-2.730;2024-01-30T11:28:35;1.98;;;1.05;;
81191;SDS011;70665;47.652;-2.730;2024-01-30T11:31:03;2.88;;;1.08;;
81191;SDS011;70665;47.652;-2.730;2024-01-30T11:33:30;3.08;;;1.10;;
81191;SDS011;70665;47.652;-2.730;2024-01-30T11:35:58;3.03;;;1.05;;
81191;SDS011;70665;47.652;-2.730;2024-01-30T11:38:25;3.33;;;0.77;;
81191;SDS011;70665;47.652;-2.730;2024-01-30T11:40:53;2.75;;;1.05;;
81191;SDS011;70665;47.652;-2.730;2024-01-30T11:43:20;2.20;;;1.08;;
81191;SDS011;70665;47.652;-2.730;2024-01-30T11:45:46;2.20;;;0.95;;
81191;SDS011;70665;47.652;-2.730;2024-01-30T11:48:12;3.95;;;1.00;;
81191;SDS011;70665;47.652;-2.730;2024-01-30T11:50:38;3.20;;;0.98;;
81191;SDS011;70665;47.652;-2.730;2024-01-30T11:53:07;1.33;;;0.73;;
81191;SDS011;70665;47.652;-2.730;2024-01-30T11:55:34;1.70;;;0.80;;
81191;SDS011;70665;47.652;-2.730;2024-01-30T11:58:01;1.40;;;0.60;;
81191;SDS011;70665;47.652;-2.730;2024-01-30T12:00:27;1.88;;;0.90;;
81191;SDS011;70665;47.652;-2.730;2024-01-30T12:02:54;2.95;;;0.80;;
81191;SDS011;70665;47.652;-2.730;2024-01-30T12:05:24;3.15;;;0.98;;
81191;SDS011;70665;47.652;-2.730;2024-01-30T12:07:50;2.47;;;0.95;;
81191;SDS011;70665;47.652;-2.730;2024-01-30T12:10:16;1.50;;;0.80;;
81191;SDS011;70665;47.652;-2.730;2024-01-30T12:12:43;2.47;;;0.70;;
81191;SDS011;70665;47.652;-2.730;2024-01-30T12:15:13;2.15;;;0.90;;
81191;SDS011;70665;47.652;-2.730;2024-01-30T12:17:39;0.80;;;0.80;;
81191;SDS011;70665;47.652;-2.730;2024-01-30T12:20:06;1.88;;;1.27;;
81191;SDS011;70665;47.652;-2.730;2024-01-30T12:22:37;2.08;;;0.80;;
81191;SDS011;70665;47.652;-2.730;2024-01-30T12:25:10;2.03;;;1.20;;
81191;SDS011;70665;47.652;-2.730;2024-01-30T12:27:37;2.67;;;0.85;;
81191;SDS011;70665;47.652;-2.730;2024-01-30T12:30:06;4.22;;;1.02;;
81191;SDS011;70665;47.652;-2.730;2024-01-30T12:32:36;2.45;;;1.15;;
81191;SDS011;70665;47.652;-2.730;2024-01-30T12:35:07;1.20;;;1.10;;
81191;SDS011;70665;47.652;-2.730;2024-01-30T12:37:36;3.35;;;0.90;;
81191;SDS011;70665;47.652;-2.730;2024-01-30T12:40:02;1.45;;;0.80;;
81191;SDS011;70665;47.652;-2.730;2024-01-30T12:44:54;1.48;;;1.00;;
81191;SDS011;70665;47.652;-2.730;2024-01-30T12:47:21;1.38;;;0.90;;
81191;SDS011;70665;47.652;-2.730;2024-01-30T12:49:47;0.85;;;0.63;;
81191;SDS011;70665;47.652;-2.730;2024-01-30T12:54:42;1.52;;;0.80;;
81191;SDS011;70665;47.652;-2.730;2024-01-30T12:59:33;1.55;;;0.80;;
81191;SDS011;70665;47.652;-2.730;2024-01-30T13:02:00;1.58;;;0.77;;
81191;SDS011;70665;47.652;-2.730;2024-01-30T13:04:26;1.92;;;0.68;;
81191;SDS011;70665;47.652;-2.730;2024-01-30T13:06:54;1.70;;;0.80;;
81191;SDS011;70665;47.652;-2.730;2024-01-30T13:09:20;3.53;;;0.93;;
81191;SDS011;70665;47.652;-2.730;2024-01-30T13:11:45;2.33;;;0.75;;
81191;SDS011;70665;47.652;-2.730;2024-01-30T13:16:37;1.35;;;0.82;;
81191;SDS011;70665;47.652;-2.730;2024-01-30T13:21:28;2.15;;;1.17;;
81191;SDS011;70665;47.652;-2.730;2024-01-30T13:26:22;2.15;;;0.93;;
81191;SDS011;70665;47.652;-2.730;2024-01-30T13:28:48;2.10;;;0.75;;
81191;SDS011;70665;47.652;-2.730;2024-01-30T13:33:40;4.45;;;0.85;;
81191;SDS011;70665;47.652;-2.730;2024-01-30T13:36:06;2.20;;;0.75;;
81191;SDS011;70665;47.652;-2.730;2024-01-30T13:38:33;4.55;;;0.90;;
81191;SDS011;70665;47.652;-2.730;2024-01-30T13:40:59;2.38;;;1.02;;
81191;SDS011;70665;47.652;-2.730;2024-01-30T13:43:25;1.45;;;0.90;;
81191;SDS011;70665;47.652;-2.730;2024-01-30T13:45:51;1.05;;;0.95;;
81191;SDS011;70665;47.652;-2.730;2024-01-30T13:48:17;1.45;;;0.80;;
81191;SDS011;70665;47.652;-2.730;2024-01-30T13:50:42;1.30;;;0.95;;
81191;SDS011;70665;47.652;-2.730;2024-01-30T13:53:08;1.30;;;0.95;;
81191;SDS011;70665;47.652;-2.730;2024-01-30T13:55:34;3.80;;;1.10;;
81191;SDS011;70665;47.652;-2.730;2024-01-30T13:57:59;1.60;;;0.80;;
81191;SDS011;70665;47.652;-2.730;2024-01-30T14:00:26;2.50;;;0.80;;
81191;SDS011;70665;47.652;-2.730;2024-01-30T14:02:52;1.42;;;1.20;;
81191;SDS011;70665;47.652;-2.730;2024-01-30T14:05:20;1.52;;;0.60;;
81191;SDS011;70665;47.652;-2.730;2024-01-30T14:07:46;1.25;;;0.73;;
81191;SDS011;70665;47.652;-2.730;2024-01-30T14:10:12;1.83;;;1.10;;
81191;SDS011;70665;47.652;-2.730;2024-01-30T14:12:38;0.70;;;0.70;;
81191;SDS011;70665;47.652;-2.730;2024-01-30T14:15:04;1.77;;;0.80;;
81191;SDS011;70665;47.652;-2.730;2024-01-30T14:17:30;0.98;;;0.88;;
81191;SDS011;70665;47.652;-2.730;2024-01-30T14:19:56;2.13;;;1.10;;
81191;SDS011;70665;47.652;-2.730;2024-01-30T14:22:21;2.25;;;1.23;;
81191;SDS011;70665;47.652;-2.730;2024-01-30T14:24:47;3.28;;;1.30;;
81191;SDS011;70665;47.652;-2.730;2024-01-30T14:27:12;1.80;;;1.10;;
81191;SDS011;70665;47.652;-2.730;2024-01-30T14:29:38;2.17;;;0.90;;
81191;SDS011;70665;47.652;-2.730;2024-01-30T14:32:04;1.45;;;1.25;;
81191;SDS011;70665;47.652;-2.730;2024-01-30T14:34:30;1.60;;;1.17;;
81191;SDS011;70665;47.652;-2.730;2024-01-30T14:36:56;2.25;;;0.80;;
81191;SDS011;70665;47.652;-2.730;2024-01-30T14:39:21;1.77;;;1.30;;
81191;SDS011;70665;47.652;-2.730;2024-01-30T14:41:47;2.15;;;1.15;;
81191;SDS011;70665;47.652;-2.730;2024-01-30T14:44:13;1.98;;;1.60;;
81191;SDS011;70665;47.652;-2.730;2024-01-30T14:46:39;3.53;;;1.70;;
81191;SDS011;70665;47.652;-2.730;2024-01-30T14:49:05;2.88;;;1.30;;
81191;SDS011;70665;47.652;-2.730;2024-01-30T14:51:31;2.47;;;1.13;;
81191;SDS011;70665;47.652;-2.730;2024-01-30T14:53:58;2.92;;;1.10;;
81191;SDS011;70665;47.652;-2.730;2024-01-30T14:56:24;1.95;;;1.13;;
81191;SDS011;70665;47.652;-2.730;2024-01-30T14:58:50;3.22;;;1.40;;
81191;SDS011;70665;47.652;-2.730;2024-01-30T15:01:16;5.63;;;1.50;;
81191;SDS011;70665;47.652;-2.730;2024-01-30T15:03:41;2.92;;;1.30;;